Time;durP1;ratioP1;P1;durP2;ratioP2;P2;SDS_P1;SDS_P2;PMS_P1;PMS_P2;Temp;Humidity;BMP_temperature;BMP_pressure;BME280_temperature;BME280_humidity;BME280_pressure;Samples;Min_cycle;Max_cycle;Signal;HPM_P1;HPM_P2
2023/04/11 00:02:11;;;;;;;;;;;12.00;1.00;;;;;;5094175;28;19904;-73
2023/04/11 00:04:37;;;;;;;;;;;11.90;1.00;;;;;;5088537;28;19915;-73
2023/04/11 00:07:06;;;;;;;;;;;11.80;1.00;;;;;;5073735;28;19908;-73
2023/04/11 00:09:32;;;;;;;;;;;11.80;1.00;;;;;;5073766;28;19919;-73
2023/04/11 00:11:57;;;;;;;;;;;11.70;1.00;;;;;;5090166;28;20304;-73
2023/04/11 00:14:23;;;;;;;;;;;11.70;1.00;;;;;;5093456;28;19908;-73
2023/04/11 00:16:52;;;;;;;;;;;11.60;1.00;;;;;;5093973;28;19915;-73
2023/04/11 00:19:22;;;;;;;;;;;11.50;1.00;;;;;;5074740;28;19915;-73
2023/04/11 00:21:48;;;;;;;;;;;11.50;1.00;;;;;;5073596;28;19904;-73
2023/04/11 00:24:14;;;;;;;;;;;11.60;1.00;;;;;;5073370;28;20374;-73
2023/04/11 00:26:42;;;;;;;;;;;11.60;1.00;;;;;;5079626;28;19908;-73
2023/04/11 00:29:08;;;;;;;;;;;11.50;1.00;;;;;;5073454;28;19930;-73
2023/04/11 00:31:36;;;;;;;;;;;11.50;1.00;;;;;;5073844;28;19908;-79
2023/04/11 00:34:18;;;;;;;;;;;11.50;1.00;;;;;;5072774;28;20425;-81
2023/04/11 00:37:06;;;;;;;;;;;11.50;1.00;;;;;;5073867;28;19911;-79
2023/04/11 00:40:00;;;;;;;;;;;11.50;1.00;;;;;;5077462;28;19926;-79
2023/04/11 00:42:30;;;;;;;;;;;11.40;1.00;;;;;;5077228;28;19908;-79
2023/04/11 00:45:18;;;;;;;;;;;11.50;1.00;;;;;;5077072;28;19912;-79
2023/04/11 00:47:49;;;;;;;;;;;11.50;1.00;;;;;;5077137;28;19912;-73
2023/04/11 00:50:15;;;;;;;;;;;11.50;1.00;;;;;;5076978;28;19909;-73
2023/04/11 00:52:42;;;;;;;;;;;11.50;1.00;;;;;;5076846;28;20262;-73
2023/04/11 00:55:08;;;;;;;;;;;11.40;1.00;;;;;;5077344;28;19909;-73
2023/04/11 00:57:34;;;;;;;;;;;11.30;1.00;;;;;;5076995;28;19911;-73
2023/04/11 01:00:00;;;;;;;;;;;11.20;1.00;;;;;;5076906;28;19904;-73
2023/04/11 01:02:30;;;;;;;;;;;11.20;1.00;;;;;;5077152;28;19919;-73
2023/04/11 01:04:57;;;;;;;;;;;11.10;1.00;;;;;;5080778;28;20266;-73
2023/04/11 01:07:23;;;;;;;;;;;11.10;1.00;;;;;;5097165;28;19911;-72
2023/04/11 01:09:50;;;;;;;;;;;11.00;1.00;;;;;;5097158;28;19908;-73
2023/04/11 01:12:16;;;;;;;;;;;11.00;1.00;;;;;;5090712;28;19912;-73
2023/04/11 01:14:41;;;;;;;;;;;11.00;1.00;;;;;;5060134;28;19908;-73
2023/04/11 01:17:11;;;;;;;;;;;10.90;1.00;;;;;;5076971;28;20441;-73
2023/04/11 01:19:37;;;;;;;;;;;10.90;1.00;;;;;;5076622;28;19912;-73
2023/04/11 01:22:02;;;;;;;;;;;10.90;1.00;;;;;;5058408;28;19908;-73
2023/04/11 01:24:30;;;;;;;;;;;10.90;1.00;;;;;;5077377;28;19987;-73
2023/04/11 01:26:56;;;;;;;;;;;10.90;1.00;;;;;;5076523;28;20363;-73
2023/04/11 01:29:22;;;;;;;;;;;10.90;1.00;;;;;;5076517;28;19957;-73
2023/04/11 01:31:48;;;;;;;;;;;10.90;1.00;;;;;;5076811;28;19904;-73
2023/04/11 01:34:15;;;;;;;;;;;10.90;1.00;;;;;;5075708;28;20046;-73
2023/04/11 01:36:41;;;;;;;;;;;10.90;1.00;;;;;;5058645;28;20253;-73
2023/04/11 01:39:07;;;;;;;;;;;10.70;1.00;;;;;;5076290;28;19905;-73
2023/04/11 01:41:33;;;;;;;;;;;10.60;1.00;;;;;;5083451;28;19908;-73
2023/04/11 01:44:01;;;;;;;;;;;10.50;1.00;;;;;;5062349;28;20270;-73
2023/04/11 01:46:54;;;;;;;;;;;10.50;1.00;;;;;;5076876;28;20398;-79
2023/04/11 01:49:30;;;;;;;;;;;10.50;1.00;;;;;;5075209;28;19905;-79
2023/04/11 01:52:00;;;;;;;;;;;10.40;1.00;;;;;;5076323;28;20279;-79
2023/04/11 01:54:48;;;;;;;;;;;10.40;1.00;;;;;;5076046;28;19908;-79
2023/04/11 01:57:18;;;;;;;;;;;10.40;1.00;;;;;;5076050;28;19927;-79
2023/04/11 01:59:54;;;;;;;;;;;10.20;1.00;;;;;;5076095;28;20383;-79
2023/04/11 02:02:20;;;;;;;;;;;10.20;1.00;;;;;;5076228;28;20352;-73
2023/04/11 02:04:46;;;;;;;;;;;10.10;1.00;;;;;;5075630;28;19942;-72
2023/04/11 02:07:12;;;;;;;;;;;10.10;1.00;;;;;;5075658;28;19905;-73
2023/04/11 02:09:38;;;;;;;;;;;10.10;1.00;;;;;;5075605;28;19909;-73
2023/04/11 02:12:03;;;;;;;;;;;10.10;1.00;;;;;;5075992;28;19930;-73
2023/04/11 02:14:40;;;;;;;;;;;10.10;1.00;;;;;;5075406;28;20061;-73
2023/04/11 02:17:08;;;;;;;;;;;10.10;1.00;;;;;;5075805;28;20296;-73
2023/04/11 02:19:34;;;;;;;;;;;10.10;1.00;;;;;;5057562;28;20252;-73
2023/04/11 02:22:01;;;;;;;;;;;10.10;1.00;;;;;;5075371;28;19911;-73
2023/04/11 02:24:29;;;;;;;;;;;10.00;1.00;;;;;;5077863;28;20378;-73
2023/04/11 02:26:55;;;;;;;;;;;10.10;1.00;;;;;;5094974;28;20351;-73
2023/04/11 02:29:21;;;;;;;;;;;10.10;1.00;;;;;;5095548;28;19904;-73
2023/04/11 02:35:12;;;;;;;;;;;9.90;1.00;;;;;;5081250;28;19911;-79
2023/04/11 02:40:41;;;;;;;;;;;9.90;1.00;;;;;;5075214;28;19911;-79
2023/04/11 02:43:42;;;;;;;;;;;9.90;1.00;;;;;;5074886;28;19904;-80
2023/04/11 02:46:12;;;;;;;;;;;9.80;1.00;;;;;;5075070;28;19904;-79
2023/04/11 02:48:38;;;;;;;;;;;9.80;1.00;;;;;;5073471;28;19904;-73
2023/04/11 02:51:04;;;;;;;;;;;9.80;1.00;;;;;;5095119;28;19912;-73
2023/04/11 02:53:29;;;;;;;;;;;9.80;1.00;;;;;;5095046;28;19935;-73
2023/04/11 02:56:01;;;;;;;;;;;9.70;1.00;;;;;;5087399;28;19970;-72
2023/04/11 02:58:27;;;;;;;;;;;9.60;1.00;;;;;;5074654;28;19908;-73
2023/04/11 03:00:53;;;;;;;;;;;9.60;1.00;;;;;;5074701;28;19905;-73
2023/04/11 03:03:19;;;;;;;;;;;9.50;1.00;;;;;;5075076;28;19950;-79
2023/04/11 03:06:00;;;;;;;;;;;9.50;1.00;;;;;;5074879;28;19911;-79
2023/04/11 03:11:29;;;;;;;;;;;9.50;1.00;;;;;;5078255;28;19950;-79
2023/04/11 03:14:29;;;;;;;;;;;9.60;1.00;;;;;;5094968;28;19907;-79
2023/04/11 03:16:54;;;;;;;;;;;9.50;1.00;;;;;;5094306;28;19916;-73
2023/04/11 03:19:20;;;;;;;;;;;9.50;1.00;;;;;;5094740;28;19908;-72
2023/04/11 03:21:46;;;;;;;;;;;9.50;1.00;;;;;;5094688;28;19958;-72
2023/04/11 03:24:11;;;;;;;;;;;9.50;1.00;;;;;;5079699;28;19908;-73
2023/04/11 03:26:37;;;;;;;;;;;9.40;1.00;;;;;;5074097;28;19940;-73
2023/04/11 03:29:03;;;;;;;;;;;9.50;1.00;;;;;;5092664;28;19939;-73
2023/04/11 03:31:29;;;;;;;;;;;9.50;1.00;;;;;;5094493;28;19912;-73
2023/04/11 03:33:54;;;;;;;;;;;9.50;1.00;;;;;;5094925;28;20271;-73
2023/04/11 03:36:27;;;;;;;;;;;9.50;1.00;;;;;;5094027;28;19907;-73
2023/04/11 03:39:00;;;;;;;;;;;9.40;1.00;;;;;;5082923;28;19916;-73
2023/04/11 03:41:30;;;;;;;;;;;9.30;1.00;;;;;;5074168;28;19908;-73
2023/04/11 03:43:56;;;;;;;;;;;9.40;1.00;;;;;;5091022;28;19916;-73
2023/04/11 03:46:21;;;;;;;;;;;9.40;1.00;;;;;;5093674;28;19910;-73
2023/04/11 03:49:00;;;;;;;;;;;9.40;1.00;;;;;;5073035;28;19905;-79
2023/04/11 03:51:36;;;;;;;;;;;9.30;1.00;;;;;;5074087;28;19966;-80
2023/04/11 03:57:05;;;;;;;;;;;9.30;1.00;;;;;;5073768;28;19936;-79
2023/04/11 03:59:48;;;;;;;;;;;9.40;1.00;;;;;;5056303;28;20334;-80
2023/04/11 04:05:17;;;;;;;;;;;9.30;1.00;;;;;;5073998;28;19974;-84
2023/04/11 04:16:52;;;;;;;;;;;9.20;1.00;;;;;;5098405;28;19919;-85
2023/04/11 04:19:17;;;;;;;;;;;9.10;1.00;;;;;;5099289;28;19908;-87
2023/04/11 04:24:46;;;;;;;;;;;9.10;1.00;;;;;;5098326;28;19973;-87
2023/04/11 04:27:12;;;;;;;;;;;9.10;1.00;;;;;;5080437;28;20347;-87
2023/04/11 04:32:42;;;;;;;;;;;9.20;1.00;;;;;;5098648;28;19934;-88
2023/04/11 04:38:16;;;;;;;;;;;9.10;1.00;;;;;;5098521;28;19987;-89
2023/04/11 04:41:00;;;;;;;;;;;9.00;1.00;;;;;;5061994;28;19915;-89
2023/04/11 04:43:48;;;;;;;;;;;9.00;1.00;;;;;;5060315;28;19912;-89
2023/04/11 04:46:18;;;;;;;;;;;8.90;1.00;;;;;;5060322;28;19904;-89
2023/04/11 04:51:47;;;;;;;;;;;8.90;1.00;;;;;;5081859;28;19964;-86
2023/04/11 04:57:16;;;;;;;;;;;8.90;1.00;;;;;;5077464;28;19958;-86
2023/04/11 05:00:00;;;;;;;;;;;8.90;1.00;;;;;;5059676;28;19905;-86
2023/04/11 05:05:29;;;;;;;;;;;8.90;1.00;;;;;;5077602;28;20004;-89
2023/04/11 05:07:55;;;;;;;;;;;9.00;1.00;;;;;;5062529;28;19947;-88
2023/04/11 05:13:23;;;;;;;;;;;8.80;1.00;;;;;;5077425;28;20275;-88
2023/04/11 05:22:30;;;;;;;;;;;8.80;1.00;;;;;;5077056;28;19958;-86
2023/04/11 05:25:18;;;;;;;;;;;8.80;1.00;;;;;;5057941;28;19908;-85
2023/04/11 05:30:47;;;;;;;;;;;8.80;1.00;;;;;;5083606;28;19919;-86
2023/04/11 05:36:15;;;;;;;;;;;8.80;1.00;;;;;;5082227;28;19915;-84
2023/04/11 05:41:49;;;;;;;;;;;8.90;1.00;;;;;;5090350;28;19915;-84
2023/04/11 05:44:30;;;;;;;;;;;8.90;1.00;;;;;;5058989;28;19916;-85
2023/04/11 05:47:06;;;;;;;;;;;9.00;1.00;;;;;;5076790;28;20013;-85
2023/04/11 05:49:36;;;;;;;;;;;9.00;1.00;;;;;;5086771;28;20382;-87
2023/04/11 05:55:30;;;;;;;;;;;9.00;1.00;;;;;;5079556;28;20003;-87
2023/04/11 06:01:00;;;;;;;;;;;9.10;1.00;;;;;;5091133;28;19915;-86
2023/04/11 06:03:37;;;;;;;;;;;9.10;1.00;;;;;;5071321;28;19912;-84
2023/04/11 06:06:06;;;;;;;;;;;9.20;1.00;;;;;;5082382;28;19964;-85
2023/04/11 06:08:43;;;;;;;;;;;9.20;1.00;;;;;;5089107;28;19904;-86
2023/04/11 06:14:12;;;;;;;;;;;9.20;1.00;;;;;;5089879;28;19954;-84
2023/04/11 06:16:37;;;;;;;;;;;9.30;1.00;;;;;;5057824;28;19924;-85
2023/04/11 06:19:24;;;;;;;;;;;9.30;1.00;;;;;;5075704;28;19908;-88
2023/04/11 06:21:54;;;;;;;;;;;9.30;1.00;;;;;;5065557;28;19908;-84
2023/04/11 06:24:35;;;;;;;;;;;9.30;1.00;;;;;;5094811;28;19992;-85
2023/04/11 06:27:00;;;;;;;;;;;9.30;1.00;;;;;;5078615;28;19905;-85
2023/04/11 06:29:31;;;;;;;;;;;9.20;1.00;;;;;;5075908;28;19996;-84
2023/04/11 06:41:06;;;;;;;;;;;9.50;1.00;;;;;;5095607;28;19923;-84
2023/04/11 06:43:36;;;;;;;;;;;9.60;1.00;;;;;;5095282;28;19904;-84
2023/04/11 06:46:30;;;;;;;;;;;9.60;1.00;;;;;;5089678;28;19928;-83
2023/04/11 06:48:56;;;;;;;;;;;9.70;1.00;;;;;;5077347;28;19908;-83
2023/04/11 06:54:25;;;;;;;;;;;9.90;1.00;;;;;;5096012;28;19957;-84
2023/04/11 06:59:53;;;;;;;;;;;10.10;1.00;;;;;;5075499;28;19990;-88
2023/04/11 07:02:43;;;;;;;;;;;10.30;1.00;;;;;;5094191;28;19912;-86
2023/04/11 07:08:12;;;;;;;;;;;10.40;1.00;;;;;;5075243;28;19958;-87
2023/04/11 07:16:43;;;;;;;;;;;10.40;1.00;;;;;;5075196;28;19919;-88
2023/04/11 07:22:12;;;;;;;;;;;10.50;1.00;;;;;;5075191;28;19911;-85
2023/04/11 07:25:13;;;;;;;;;;;10.60;1.00;;;;;;5057205;28;19905;-86
2023/04/11 07:34:09;;;;;;;;;;;10.90;1.00;;;;;;5075140;28;19911;-89
2023/04/11 07:39:48;;;;;;;;;;;10.90;1.00;;;;;;5074575;28;20003;-88
2023/04/11 07:42:18;;;;;;;;;;;10.90;1.00;;;;;;5057128;28;19904;-81
2023/04/11 07:47:47;;;;;;;;;;;11.00;1.00;;;;;;5077402;28;19915;-84
2023/04/11 07:50:12;;;;;;;;;;;11.00;1.00;;;;;;5076498;28;19908;-78
2023/04/11 07:53:06;;;;;;;;;;;11.00;1.00;;;;;;5094398;28;20313;-84
2023/04/11 07:58:35;;;;;;;;;;;11.30;1.00;;;;;;5094140;28;20383;-82
2023/04/11 08:01:01;;;;;;;;;;;11.30;1.00;;;;;;5076023;28;19904;-82
2023/04/11 08:04:00;;;;;;;;;;;11.40;1.00;;;;;;5094580;28;19904;-81
2023/04/11 08:06:27;;;;;;;;;;;11.60;1.00;;;;;;5057392;28;19918;-74
2023/04/11 08:08:53;;;;;;;;;;;11.80;1.00;;;;;;5073881;28;19904;-74
2023/04/11 08:11:19;;;;;;;;;;;12.00;1.00;;;;;;5074047;28;19981;-74
2023/04/11 08:13:49;;;;;;;;;;;12.20;1.00;;;;;;5073951;28;20245;-74
2023/04/11 08:16:24;;;;;;;;;;;12.30;1.00;;;;;;5073131;28;19912;-75
2023/04/11 08:18:51;;;;;;;;;;;12.40;1.00;;;;;;5090506;28;19923;-74
2023/04/11 08:21:19;;;;;;;;;;;12.30;1.00;;;;;;5093488;28;19907;-82
2023/04/11 08:24:06;;;;;;;;;;;12.10;1.00;;;;;;5083093;28;19908;-82
2023/04/11 08:27:00;;;;;;;;;;;12.00;1.00;;;;;;5072967;28;19946;-82
2023/04/11 08:29:30;;;;;;;;;;;12.10;1.00;;;;;;5073123;28;19912;-81
2023/04/11 08:34:59;;;;;;;;;;;12.20;1.00;;;;;;5072777;28;19927;-82
2023/04/11 08:37:26;;;;;;;;;;;12.30;1.00;;;;;;5073150;28;20355;-74
2023/04/11 08:39:51;;;;;;;;;;;12.30;1.00;;;;;;5072795;28;19904;-73
2023/04/11 08:42:21;;;;;;;;;;;12.20;1.00;;;;;;5072613;28;19905;-73
2023/04/11 08:44:54;;;;;;;;;;;12.20;1.00;;;;;;5072672;28;19911;-74
2023/04/11 08:47:25;;;;;;;;;;;12.30;1.00;;;;;;5055026;28;19999;-74
2023/04/11 08:49:51;;;;;;;;;;;12.50;1.00;;;;;;5054606;28;19915;-73
2023/04/11 08:52:25;;;;;;;;;;;12.60;1.00;;;;;;5072885;28;19912;-81
2023/04/11 08:54:53;;;;;;;;;;;12.60;1.00;;;;;;5072695;28;19909;-81
2023/04/11 08:57:48;;;;;;;;;;;12.70;1.00;;;;;;5072467;28;19905;-81
2023/04/11 09:00:22;;;;;;;;;;;12.80;1.00;;;;;;5076302;28;19909;-81
2023/04/11 09:03:18;;;;;;;;;;;13.20;1.00;;;;;;5076007;28;20348;-82
2023/04/11 09:08:47;;;;;;;;;;;13.60;1.00;;;;;;5075763;28;19911;-82
2023/04/11 09:11:13;;;;;;;;;;;13.70;1.00;;;;;;5075760;28;19909;-83
2023/04/11 09:16:56;;;;;;;;;;;13.70;1.00;;;;;;5036984;28;1134206;-86
2023/04/11 09:19:36;;;;;;;;;;;13.40;1.00;;;;;;5060786;28;19958;-83
2023/04/11 09:22:07;;;;;;;;;;;13.10;1.00;;;;;;5077123;28;19904;-82
2023/04/11 09:27:36;;;;;;;;;;;12.20;1.00;;;;;;5076846;28;19911;-85
2023/04/11 09:30:02;;;;;;;;;;;12.00;1.00;;;;;;5071255;28;19958;-85
2023/04/11 09:32:29;;;;;;;;;;;11.40;1.00;;;;;;5059238;28;19904;-85
2023/04/11 09:35:21;;;;;;;;;;;11.30;1.00;;;;;;5076592;28;19927;-85
2023/04/11 09:37:47;;;;;;;;;;;11.30;1.00;;;;;;5055792;28;19943;-85
2023/04/11 09:40:13;;;;;;;;;;;11.40;1.00;;;;;;5075462;28;20005;-85
2023/04/11 09:42:40;;;;;;;;;;;11.60;1.00;;;;;;5058186;28;19914;-85
2023/04/11 09:45:15;;;;;;;;;;;11.90;1.00;;;;;;5057898;28;20290;-86
2023/04/11 09:47:41;;;;;;;;;;;12.00;1.00;;;;;;5076096;28;19908;-85
2023/04/11 09:50:06;;;;;;;;;;;12.10;1.00;;;;;;5057849;28;19920;-85
2023/04/11 09:52:32;;;;;;;;;;;12.10;1.00;;;;;;5058683;28;19955;-93
2023/04/11 09:55:06;;;;;;;;;;;12.20;1.00;;;;;;5059362;28;19908;-96
2023/04/11 10:00:38;;;;;;;;;;;12.60;1.00;;;;;;5076714;28;19953;-95
2023/04/11 10:03:22;;;;;;;;;;;12.70;1.00;;;;;;5062195;28;19994;-96
2023/04/11 10:06:06;;;;;;;;;;;12.70;1.00;;;;;;5076525;28;19962;-95
2023/04/11 10:09:00;;;;;;;;;;;12.90;1.00;;;;;;5096452;28;19943;-96
2023/04/11 10:11:26;;;;;;;;;;;12.70;1.00;;;;;;5074893;28;19912;-93
2023/04/11 10:14:13;;;;;;;;;;;13.00;1.00;;;;;;5059695;28;19914;-96
2023/04/11 10:16:59;;;;;;;;;;;13.00;1.00;;;;;;5078205;28;19912;-93
2023/04/11 10:22:40;;;;;;;;;;;13.10;1.00;;;;;;5078871;28;20370;-96
2023/04/11 10:25:22;;;;;;;;;;;12.90;1.00;;;;;;5057668;28;19904;-76
2023/04/11 10:27:48;;;;;;;;;;;12.90;1.00;;;;;;5084616;28;19908;-75
2023/04/11 10:30:14;;;;;;;;;;;12.90;1.00;;;;;;5075287;28;19919;-73
2023/04/11 10:32:42;;;;;;;;;;;12.40;1.00;;;;;;5074121;28;19904;-73
2023/04/11 10:35:09;;;;;;;;;;;11.90;1.00;;;;;;5077440;28;20449;-74
2023/04/11 10:37:35;;;;;;;;;;;11.90;1.00;;;;;;5086460;28;20022;-74
2023/04/11 10:40:07;;;;;;;;;;;11.90;1.00;;;;;;5088336;28;19904;-76
2023/04/11 10:42:42;;;;;;;;;;;11.90;1.00;;;;;;5087973;28;19931;-74
2023/04/11 10:45:23;;;;;;;;;;;11.80;1.00;;;;;;5074492;28;19905;-73
2023/04/11 10:47:56;;;;;;;;;;;12.00;1.00;;;;;;5074488;28;20360;-73
2023/04/11 10:50:27;;;;;;;;;;;12.00;1.00;;;;;;5074371;28;19915;-73
2023/04/11 10:53:05;;;;;;;;;;;12.10;1.00;;;;;;5085106;28;19938;-73
2023/04/11 10:55:51;;;;;;;;;;;12.20;1.00;;;;;;5081165;28;19909;-71
2023/04/11 10:58:21;;;;;;;;;;;12.30;1.00;;;;;;5073638;28;20275;-71
2023/04/11 11:00:52;;;;;;;;;;;12.40;1.00;;;;;;5074115;28;19912;-71
2023/04/11 11:03:21;;;;;;;;;;;12.60;1.00;;;;;;5074247;28;20563;-71
2023/04/11 11:05:55;;;;;;;;;;;12.80;1.00;;;;;;5074368;28;20013;-71
2023/04/11 11:08:31;;;;;;;;;;;13.10;1.00;;;;;;5077234;28;19908;-72
2023/04/11 11:11:02;;;;;;;;;;;13.30;1.00;;;;;;5070421;28;20382;-72
2023/04/11 11:13:43;;;;;;;;;;;13.70;1.00;;;;;;5057685;28;20325;-72
2023/04/11 11:16:13;;;;;;;;;;;14.10;1.00;;;;;;5075034;28;19916;-72
2023/04/11 11:18:38;;;;;;;;;;;14.50;1.00;;;;;;5080533;28;19989;-72
2023/04/11 11:21:04;;;;;;;;;;;14.60;1.00;;;;;;5079044;28;20478;-72
2023/04/11 11:23:30;;;;;;;;;;;14.80;1.00;;;;;;5073598;28;19908;-71
2023/04/11 11:25:56;;;;;;;;;;;16.00;1.00;;;;;;5077620;28;19908;-75
2023/04/11 11:28:22;;;;;;;;;;;15.10;1.00;;;;;;5080845;28;19992;-74
2023/04/11 11:30:49;;;;;;;;;;;15.20;1.00;;;;;;5056103;28;19908;-74
2023/04/11 11:33:17;;;;;;;;;;;15.20;1.00;;;;;;5075408;28;19908;-75
2023/04/11 11:35:54;;;;;;;;;;;15.10;1.00;;;;;;5073963;28;19908;-73
2023/04/11 11:38:20;;;;;;;;;;;15.10;1.00;;;;;;5074319;28;20347;-74
2023/04/11 11:40:55;;;;;;;;;;;15.10;1.00;;;;;;5078886;28;20026;-74
2023/04/11 11:43:21;;;;;;;;;;;14.90;1.00;;;;;;5073982;28;19904;-74
2023/04/11 11:45:47;;;;;;;;;;;14.90;1.00;;;;;;5056084;28;20027;-75
2023/04/11 11:48:23;;;;;;;;;;;15.00;1.00;;;;;;5083666;28;19908;-71
2023/04/11 11:50:56;;;;;;;;;;;15.10;1.00;;;;;;5081604;28;19966;-70
2023/04/11 11:53:22;;;;;;;;;;;15.10;1.00;;;;;;5077215;28;19915;-70
2023/04/11 11:55:49;;;;;;;;;;;15.40;1.00;;;;;;5074012;28;19911;-74
2023/04/11 11:58:19;;;;;;;;;;;15.30;1.00;;;;;;5073536;28;19911;-74
2023/04/11 12:00:49;;;;;;;;;;;15.30;1.00;;;;;;5080476;28;19990;-74
2023/04/11 12:03:22;;;;;;;;;;;15.10;1.00;;;;;;5084941;28;19928;-74
2023/04/11 12:05:51;;;;;;;;;;;15.00;1.00;;;;;;5076760;28;19998;-74
2023/04/11 12:08:18;;;;;;;;;;;15.00;1.00;;;;;;5081259;28;20360;-74
2023/04/11 12:10:47;;;;;;;;;;;14.70;1.00;;;;;;5078110;28;19919;-74
2023/04/11 12:13:14;;;;;;;;;;;14.80;1.00;;;;;;5073868;28;19908;-74
2023/04/11 12:15:45;;;;;;;;;;;14.90;1.00;;;;;;5078575;28;19912;-74
2023/04/11 12:18:13;;;;;;;;;;;15.00;1.00;;;;;;5081775;28;19919;-74
2023/04/11 12:20:38;;;;;;;;;;;15.00;1.00;;;;;;5076612;28;19908;-75
2023/04/11 12:23:04;;;;;;;;;;;15.40;1.00;;;;;;5073936;28;19916;-74
2023/04/11 12:25:30;;;;;;;;;;;15.70;1.00;;;;;;5088691;28;20370;-73
2023/04/11 12:27:56;;;;;;;;;;;15.90;1.00;;;;;;5073568;28;19905;-74
2023/04/11 12:30:25;;;;;;;;;;;16.10;1.00;;;;;;5086166;28;19919;-74
2023/04/11 12:32:55;;;;;;;;;;;16.40;1.00;;;;;;5074045;28;19913;-75
2023/04/11 12:35:25;;;;;;;;;;;16.80;1.00;;;;;;5077650;28;19904;-74
2023/04/11 12:37:55;;;;;;;;;;;16.70;1.00;;;;;;5077387;28;19919;-74
2023/04/11 12:40:31;;;;;;;;;;;16.40;1.00;;;;;;5081772;28;19962;-76
2023/04/11 12:42:56;;;;;;;;;;;16.30;1.00;;;;;;5077273;28;19915;-74
2023/04/11 12:45:42;;;;;;;;;;;16.00;1.00;;;;;;5085434;28;19987;-83
2023/04/11 12:48:13;;;;;;;;;;;15.70;1.00;;;;;;5059239;28;19904;-83
2023/04/11 12:51:12;;;;;;;;;;;15.40;1.00;;;;;;5077556;28;19999;-82
2023/04/11 12:53:51;;;;;;;;;;;15.30;1.00;;;;;;5077238;28;20007;-82
2023/04/11 12:56:17;;;;;;;;;;;14.80;1.00;;;;;;5077428;28;20367;-79
2023/04/11 12:58:49;;;;;;;;;;;14.40;1.00;;;;;;5077146;28;19912;-80
2023/04/11 13:01:19;;;;;;;;;;;14.40;1.00;;;;;;5084356;28;19931;-80
2023/04/11 13:03:44;;;;;;;;;;;14.40;1.00;;;;;;5097127;28;20351;-79
2023/04/11 13:06:42;;;;;;;;;;;14.70;1.00;;;;;;5093775;28;19911;-80
2023/04/11 13:09:13;;;;;;;;;;;14.90;1.00;;;;;;5095389;28;19908;-80
2023/04/11 13:12:06;;;;;;;;;;;15.10;1.00;;;;;;5085462;28;19923;-82
2023/04/11 13:14:55;;;;;;;;;;;15.30;1.00;;;;;;5058837;28;19913;-83
2023/04/11 13:20:24;;;;;;;;;;;15.70;1.00;;;;;;5096634;28;20381;-82
2023/04/11 13:23:07;;;;;;;;;;;15.80;1.00;;;;;;5093235;28;19904;-82
2023/04/11 13:25:37;;;;;;;;;;;15.60;1.00;;;;;;5076871;28;19915;-80
2023/04/11 13:28:07;;;;;;;;;;;16.00;1.00;;;;;;5076436;28;19904;-80
2023/04/11 13:30:49;;;;;;;;;;;16.30;1.00;;;;;;5068311;28;19908;-79
2023/04/11 13:33:19;;;;;;;;;;;16.50;1.00;;;;;;5078672;28;19904;-79
2023/04/11 13:36:01;;;;;;;;;;;17.00;1.00;;;;;;5096298;28;19904;-79
2023/04/11 13:38:31;;;;;;;;;;;17.40;1.00;;;;;;5076125;28;19920;-80
2023/04/11 13:44:00;;;;;;;;;;;17.40;1.00;;;;;;5075657;28;19978;-82
2023/04/11 13:46:31;;;;;;;;;;;17.30;1.00;;;;;;5075353;28;20352;-82
2023/04/11 13:49:01;;;;;;;;;;;17.40;1.00;;;;;;5084774;28;19904;-82
2023/04/11 13:51:26;;;;;;;;;;;17.30;1.00;;;;;;5086159;28;20303;-83
2023/04/11 13:53:52;;;;;;;;;;;17.10;1.00;;;;;;5084646;28;19904;-82
2023/04/11 13:56:31;;;;;;;;;;;17.00;1.00;;;;;;5094647;28;19904;-82
2023/04/11 13:59:01;;;;;;;;;;;16.60;1.00;;;;;;5092911;28;19911;-82
2023/04/11 14:04:30;;;;;;;;;;;16.60;1.00;;;;;;5075685;28;19995;-82
2023/04/11 14:07:14;;;;;;;;;;;16.40;1.00;;;;;;5074010;28;20343;-83
2023/04/11 14:09:40;;;;;;;;;;;16.30;1.00;;;;;;5057577;28;19909;-81
2023/04/11 14:12:07;;;;;;;;;;;16.50;1.00;;;;;;5083051;28;19912;-80
2023/04/11 14:14:32;;;;;;;;;;;16.70;1.00;;;;;;5096005;28;19904;-80
2023/04/11 14:17:19;;;;;;;;;;;17.10;1.00;;;;;;5095959;28;19916;-83
2023/04/11 14:19:55;;;;;;;;;;;17.60;1.00;;;;;;5083220;28;19909;-80
2023/04/11 14:22:20;;;;;;;;;;;17.80;1.00;;;;;;5057779;28;19991;-80
2023/04/11 14:25:01;;;;;;;;;;;17.90;1.00;;;;;;5075500;28;19955;-78
2023/04/11 14:27:43;;;;;;;;;;;17.70;1.00;;;;;;5075860;28;19909;-81
2023/04/11 14:30:09;;;;;;;;;;;17.60;1.00;;;;;;5091528;28;20263;-80
2023/04/11 14:32:37;;;;;;;;;;;17.60;1.00;;;;;;5081280;28;19909;-80
2023/04/11 14:35:19;;;;;;;;;;;17.50;1.00;;;;;;5057381;28;19954;-79
2023/04/11 14:38:01;;;;;;;;;;;17.80;1.00;;;;;;5057292;28;19904;-81
2023/04/11 14:40:55;;;;;;;;;;;17.90;1.00;;;;;;5057337;28;20291;-80
2023/04/11 14:43:25;;;;;;;;;;;17.60;1.00;;;;;;5080144;28;19911;-80
2023/04/11 14:49:01;;;;;;;;;;;17.50;1.00;;;;;;5091390;28;19934;-80
2023/04/11 14:51:28;;;;;;;;;;;17.40;1.00;;;;;;5075244;28;20414;-81
2023/04/11 14:54:24;;;;;;;;;;;17.40;1.00;;;;;;5093861;28;19994;-80
2023/04/11 14:57:02;;;;;;;;;;;17.70;1.00;;;;;;5095225;28;19915;-80
2023/04/11 14:59:37;;;;;;;;;;;17.80;1.00;;;;;;5095159;28;19904;-82
2023/04/11 15:02:07;;;;;;;;;;;18.30;1.00;;;;;;5082718;28;19908;-80
2023/04/11 15:04:33;;;;;;;;;;;18.20;1.00;;;;;;5084382;28;20366;-80
2023/04/11 15:06:58;;;;;;;;;;;18.50;1.00;;;;;;5094857;28;19966;-80
2023/04/11 15:12:27;;;;;;;;;;;18.70;1.00;;;;;;5083155;28;20015;-81
2023/04/11 15:15:19;;;;;;;;;;;18.50;1.00;;;;;;5074787;28;19948;-81
2023/04/11 15:18:09;;;;;;;;;;;18.40;1.00;;;;;;5074581;28;19920;-81
2023/04/11 15:20:37;;;;;;;;;;;18.80;1.00;;;;;;5078455;28;20011;-83
2023/04/11 15:26:07;;;;;;;;;;;18.90;1.00;;;;;;5074621;28;19911;-82
2023/04/11 15:28:34;;;;;;;;;;;18.60;1.00;;;;;;5056304;28;19909;-82
2023/04/11 15:31:01;;;;;;;;;;;18.00;1.00;;;;;;5074171;28;19946;-82
2023/04/11 15:33:31;;;;;;;;;;;17.80;1.00;;;;;;5056219;28;19908;-82
2023/04/11 15:36:13;;;;;;;;;;;17.90;1.00;;;;;;5074153;28;19973;-83
2023/04/11 15:38:56;;;;;;;;;;;18.50;1.00;;;;;;5074245;28;19912;-81
2023/04/11 15:41:21;;;;;;;;;;;19.60;1.00;;;;;;5083647;28;19908;-76
2023/04/11 15:43:55;;;;;;;;;;;20.10;1.00;;;;;;5075473;28;20003;-79
2023/04/11 15:46:44;;;;;;;;;;;20.80;1.00;;;;;;5094327;28;19911;-79
2023/04/11 15:49:13;;;;;;;;;;;20.70;1.00;;;;;;5089167;28;19915;-78
2023/04/11 15:51:38;;;;;;;;;;;20.40;1.00;;;;;;5089691;28;20006;-78
2023/04/11 15:54:07;;;;;;;;;;;20.70;1.00;;;;;;5075834;28;19944;-78
2023/04/11 15:56:37;;;;;;;;;;;21.50;1.00;;;;;;5074366;28;20298;-83
2023/04/11 16:02:31;;;;;;;;;;;21.60;1.00;;;;;;5074728;28;19915;-84
2023/04/11 16:05:07;;;;;;;;;;;20.10;1.00;;;;;;5078186;28;20275;-84
2023/04/11 16:07:38;;;;;;;;;;;20.70;1.00;;;;;;5088987;28;19911;-83
2023/04/11 16:16:31;;;;;;;;;;;22.20;1.00;;;;;;5073696;28;19965;-80
2023/04/11 16:19:19;;;;;;;;;;;21.00;1.00;;;;;;5073690;28;19916;-80
2023/04/11 16:21:49;;;;;;;;;;;20.70;1.00;;;;;;5079348;28;20245;-80
2023/04/11 16:27:18;;;;;;;;;;;19.30;1.00;;;;;;5074009;28;19911;-83
2023/04/11 16:30:04;;;;;;;;;;;18.90;1.00;;;;;;5073790;28;20390;-82
2023/04/11 16:32:37;;;;;;;;;;;18.50;1.00;;;;;;5059487;28;20252;-82
2023/04/11 16:35:07;;;;;;;;;;;17.80;1.00;;;;;;5075830;28;19904;-83
2023/04/11 16:37:43;;;;;;;;;;;17.40;1.00;;;;;;5093905;28;19904;-83
2023/04/11 16:40:11;;;;;;;;;;;16.90;1.00;;;;;;5093965;28;19904;-83
2023/04/11 16:43:07;;;;;;;;;;;16.10;1.00;;;;;;5074362;28;19912;-81
2023/04/11 16:45:37;;;;;;;;;;;15.90;1.00;;;;;;5074220;28;19999;-84
2023/04/11 16:48:08;;;;;;;;;;;16.60;1.00;;;;;;5073914;28;19916;-83
2023/04/11 16:50:49;;;;;;;;;;;17.30;1.00;;;;;;5072941;28;19919;-84
2023/04/11 16:56:17;;;;;;;;;;;17.80;1.00;;;;;;5073464;28;20279;-84
2023/04/11 16:58:49;;;;;;;;;;;17.60;1.00;;;;;;5055457;28;19904;-81
2023/04/11 17:04:17;;;;;;;;;;;16.80;1.00;;;;;;5073375;28;19961;-80
2023/04/11 17:06:49;;;;;;;;;;;16.60;1.00;;;;;;5073474;28;19908;-80
2023/04/11 17:12:17;;;;;;;;;;;16.00;1.00;;;;;;5091451;28;19965;-81
2023/04/11 17:14:55;;;;;;;;;;;15.40;1.00;;;;;;5055384;28;19904;-81
2023/04/11 17:20:23;;;;;;;;;;;14.90;1.00;;;;;;5075516;28;19935;-78
2023/04/11 17:22:55;;;;;;;;;;;14.90;1.00;;;;;;5079316;28;20344;-79
2023/04/11 17:25:25;;;;;;;;;;;14.80;1.00;;;;;;5076652;28;19927;-79
2023/04/11 17:27:50;;;;;;;;;;;14.60;1.00;;;;;;5076892;28;19915;-79
2023/04/11 17:30:16;;;;;;;;;;;14.50;1.00;;;;;;5058599;28;19916;-80
2023/04/11 17:32:45;;;;;;;;;;;14.50;1.00;;;;;;5076451;28;19915;-80
2023/04/11 17:35:26;;;;;;;;;;;14.40;1.00;;;;;;5076566;28;20003;-80
2023/04/11 17:41:20;;;;;;;;;;;14.20;1.00;;;;;;5076724;28;19961;-80
2023/04/11 17:44:06;;;;;;;;;;;14.20;1.00;;;;;;5076727;28;19962;-81
2023/04/11 17:47:01;;;;;;;;;;;14.20;1.00;;;;;;5058619;28;19912;-81
2023/04/11 17:49:31;;;;;;;;;;;14.10;1.00;;;;;;5058269;28;19908;-81
2023/04/11 17:55:00;;;;;;;;;;;13.70;1.00;;;;;;5076243;28;20366;-81
2023/04/11 17:57:26;;;;;;;;;;;13.60;1.00;;;;;;5076253;28;19905;-82
2023/04/11 17:59:51;;;;;;;;;;;13.50;1.00;;;;;;5076010;28;20287;-80
2023/04/11 18:02:25;;;;;;;;;;;13.40;1.00;;;;;;5076599;28;19919;-80
2023/04/11 18:07:56;;;;;;;;;;;13.20;1.00;;;;;;5075962;28;19953;-81